sensor_id;sensor_type;location;lat;lon;timestamp;temperature;humidity
21033;DHT22;10675;47.976;7.824;2023-05-31T00:02:12;18.70;50.30
21033;DHT22;10675;47.976;7.824;2023-05-31T00:04:38;18.60;51.00
21033;DHT22;10675;47.976;7.824;2023-05-31T00:07:05;18.60;51.50
21033;DHT22;10675;47.976;7.824;2023-05-31T00:09:31;18.50;50.00
21033;DHT22;10675;47.976;7.824;2023-05-31T00:11:56;18.40;51.80
21033;DHT22;10675;47.976;7.824;2023-05-31T00:14:22;18.30;51.70
21033;DHT22;10675;47.976;7.824;2023-05-31T00:16:47;18.30;52.20
21033;DHT22;10675;47.976;7.824;2023-05-31T00:19:13;18.20;52.30
21033;DHT22;10675;47.976;7.824;2023-05-31T00:21:38;18.30;54.40
21033;DHT22;10675;47.976;7.824;2023-05-31T00:24:04;18.20;52.10
21033;DHT22;10675;47.976;7.824;2023-05-31T00:26:30;18.10;52.30
21033;DHT22;10675;47.976;7.824;2023-05-31T00:28:55;18.10;53.30
21033;DHT22;10675;47.976;7.824;2023-05-31T00:31:21;18.00;53.20
21033;DHT22;10675;47.976;7.824;2023-05-31T00:33:46;17.90;53.10
21033;DHT22;10675;47.976;7.824;2023-05-31T00:36:12;18.00;54.80
21033;DHT22;10675;47.976;7.824;2023-05-31T00:38:37;18.00;55.30
21033;DHT22;10675;47.976;7.824;2023-05-31T00:41:03;17.80;54.40
21033;DHT22;10675;47.976;7.824;2023-05-31T00:43:28;17.80;55.00
21033;DHT22;10675;47.976;7.824;2023-05-31T00:45:54;17.80;54.70
21033;DHT22;10675;47.976;7.824;2023-05-31T00:48:20;17.70;54.60
21033;DHT22;10675;47.976;7.824;2023-05-31T00:50:45;17.70;54.70
21033;DHT22;10675;47.976;7.824;2023-05-31T00:53:11;17.90;54.30
21033;DHT22;10675;47.976;7.824;2023-05-31T00:55:37;17.80;54.80
21033;DHT22;10675;47.976;7.824;2023-05-31T00:58:03;17.70;54.60
21033;DHT22;10675;47.976;7.824;2023-05-31T01:00:30;17.70;56.00
21033;DHT22;10675;47.976;7.824;2023-05-31T01:02:56;17.60;56.30
21033;DHT22;10675;47.976;7.824;2023-05-31T01:05:21;17.50;55.90
21033;DHT22;10675;47.976;7.824;2023-05-31T01:07:47;17.40;57.20
21033;DHT22;10675;47.976;7.824;2023-05-31T01:10:14;17.40;58.00
21033;DHT22;10675;47.976;7.824;2023-05-31T01:12:56;17.40;55.90
21033;DHT22;10675;47.976;7.824;2023-05-31T01:15:27;17.30;55.20
21033;DHT22;10675;47.976;7.824;2023-05-31T01:18:06;17.20;54.80
21033;DHT22;10675;47.976;7.824;2023-05-31T01:20:35;17.20;55.30
21033;DHT22;10675;47.976;7.824;2023-05-31T01:28:32;17.00;56.50
21033;DHT22;10675;47.976;7.824;2023-05-31T01:31:02;17.00;57.50
21033;DHT22;10675;47.976;7.824;2023-05-31T01:33:28;16.90;58.70
21033;DHT22;10675;47.976;7.824;2023-05-31T01:35:53;16.70;61.70
21033;DHT22;10675;47.976;7.824;2023-05-31T01:38:19;16.60;62.20
21033;DHT22;10675;47.976;7.824;2023-05-31T01:40:45;16.40;62.30
21033;DHT22;10675;47.976;7.824;2023-05-31T01:43:11;16.30;64.10
21033;DHT22;10675;47.976;7.824;2023-05-31T01:45:37;16.20;65.30
21033;DHT22;10675;47.976;7.824;2023-05-31T01:48:05;16.10;63.50
21033;DHT22;10675;47.976;7.824;2023-05-31T01:50:33;16.20;64.20
21033;DHT22;10675;47.976;7.824;2023-05-31T01:52:59;16.30;65.50
21033;DHT22;10675;47.976;7.824;2023-05-31T01:55:25;16.20;65.20
21033;DHT22;10675;47.976;7.824;2023-05-31T01:57:51;15.90;66.30
21033;DHT22;10675;47.976;7.824;2023-05-31T02:00:17;15.90;66.90
21033;DHT22;10675;47.976;7.824;2023-05-31T02:02:44;15.90;67.70
21033;DHT22;10675;47.976;7.824;2023-05-31T02:05:11;15.80;67.70
21033;DHT22;10675;47.976;7.824;2023-05-31T02:07:38;15.70;67.60
21033;DHT22;10675;47.976;7.824;2023-05-31T02:10:04;15.60;68.50
21033;DHT22;10675;47.976;7.824;2023-05-31T02:12:30;15.60;69.20
21033;DHT22;10675;47.976;7.824;2023-05-31T02:14:56;15.50;70.30
21033;DHT22;10675;47.976;7.824;2023-05-31T02:17:21;15.40;70.80
21033;DHT22;10675;47.976;7.824;2023-05-31T02:19:53;15.30;70.90
21033;DHT22;10675;47.976;7.824;2023-05-31T02:22:20;15.10;71.00
21033;DHT22;10675;47.976;7.824;2023-05-31T02:24:45;15.00;69.70
21033;DHT22;10675;47.976;7.824;2023-05-31T02:27:12;15.10;70.10
21033;DHT22;10675;47.976;7.824;2023-05-31T02:29:37;15.00;70.40
21033;DHT22;10675;47.976;7.824;2023-05-31T02:32:03;15.00;71.40
21033;DHT22;10675;47.976;7.824;2023-05-31T02:34:29;14.80;71.40
21033;DHT22;10675;47.976;7.824;2023-05-31T02:36:55;14.70;72.00
21033;DHT22;10675;47.976;7.824;2023-05-31T02:39:21;14.80;71.60
21033;DHT22;10675;47.976;7.824;2023-05-31T02:41:46;14.80;71.90
21033;DHT22;10675;47.976;7.824;2023-05-31T02:44:12;14.80;72.10
21033;DHT22;10675;47.976;7.824;2023-05-31T02:46:39;14.80;73.20
21033;DHT22;10675;47.976;7.824;2023-05-31T02:49:05;14.70;74.10
21033;DHT22;10675;47.976;7.824;2023-05-31T02:51:32;14.70;73.60
21033;DHT22;10675;47.976;7.824;2023-05-31T02:53:57;14.70;74.50
21033;DHT22;10675;47.976;7.824;2023-05-31T02:56:23;14.50;75.10
21033;DHT22;10675;47.976;7.824;2023-05-31T02:58:48;14.50;75.90
21033;DHT22;10675;47.976;7.824;2023-05-31T03:01:14;14.50;75.70
21033;DHT22;10675;47.976;7.824;2023-05-31T03:03:40;14.30;76.50
21033;DHT22;10675;47.976;7.824;2023-05-31T03:06:06;14.30;76.60
21033;DHT22;10675;47.976;7.824;2023-05-31T03:08:31;14.20;76.90
21033;DHT22;10675;47.976;7.824;2023-05-31T03:10:57;14.10;75.90
21033;DHT22;10675;47.976;7.824;2023-05-31T03:13:22;14.00;77.70
21033;DHT22;10675;47.976;7.824;2023-05-31T03:15:48;14.00;78.50
21033;DHT22;10675;47.976;7.824;2023-05-31T03:18:14;13.80;78.40
21033;DHT22;10675;47.976;7.824;2023-05-31T03:20:39;13.80;77.20
21033;DHT22;10675;47.976;7.824;2023-05-31T03:23:05;13.90;74.00
21033;DHT22;10675;47.976;7.824;2023-05-31T03:25:32;14.10;78.30
21033;DHT22;10675;47.976;7.824;2023-05-31T03:27:58;14.00;78.20
21033;DHT22;10675;47.976;7.824;2023-05-31T03:30:24;14.10;78.00
21033;DHT22;10675;47.976;7.824;2023-05-31T03:32:49;14.10;77.80
21033;DHT22;10675;47.976;7.824;2023-05-31T03:35:16;14.10;78.80
21033;DHT22;10675;47.976;7.824;2023-05-31T03:37:41;14.20;78.40
21033;DHT22;10675;47.976;7.824;2023-05-31T03:40:07;14.20;79.30
21033;DHT22;10675;47.976;7.824;2023-05-31T03:42:34;14.20;80.70
21033;DHT22;10675;47.976;7.824;2023-05-31T03:45:00;14.20;79.70
21033;DHT22;10675;47.976;7.824;2023-05-31T03:47:25;14.10;79.60
21033;DHT22;10675;47.976;7.824;2023-05-31T03:49:51;14.00;79.90
21033;DHT22;10675;47.976;7.824;2023-05-31T03:52:17;13.90;81.70
21033;DHT22;10675;47.976;7.824;2023-05-31T03:54:42;13.80;82.50
21033;DHT22;10675;47.976;7.824;2023-05-31T03:57:08;13.80;82.60
21033;DHT22;10675;47.976;7.824;2023-05-31T03:59:34;13.80;82.70
21033;DHT22;10675;47.976;7.824;2023-05-31T04:02:00;13.80;81.30
21033;DHT22;10675;47.976;7.824;2023-05-31T04:04:26;13.80;81.10
21033;DHT22;10675;47.976;7.824;2023-05-31T04:06:52;13.90;83.20
21033;DHT22;10675;47.976;7.824;2023-05-31T04:09:18;14.00;81.30
21033;DHT22;10675;47.976;7.824;2023-05-31T04:11:44;14.00;80.70
21033;DHT22;10675;47.976;7.824;2023-05-31T04:14:09;14.00;82.10
21033;DHT22;10675;47.976;7.824;2023-05-31T04:16:35;14.10;82.30
21033;DHT22;10675;47.976;7.824;2023-05-31T04:19:00;14.20;83.30
21033;DHT22;10675;47.976;7.824;2023-05-31T04:21:26;14.20;79.60
21033;DHT22;10675;47.976;7.824;2023-05-31T04:23:52;14.30;80.30
21033;DHT22;10675;47.976;7.824;2023-05-31T04:26:18;14.30;79.00
21033;DHT22;10675;47.976;7.824;2023-05-31T04:28:44;14.40;79.80
21033;DHT22;10675;47.976;7.824;2023-05-31T04:31:10;14.50;78.70
21033;DHT22;10675;47.976;7.824;2023-05-31T04:33:36;14.40;80.60
21033;DHT22;10675;47.976;7.824;2023-05-31T04:36:02;14.40;79.90
21033;DHT22;10675;47.976;7.824;2023-05-31T04:38:29;14.40;82.20
21033;DHT22;10675;47.976;7.824;2023-05-31T04:40:56;14.40;83.10
21033;DHT22;10675;47.976;7.824;2023-05-31T04:43:22;14.40;83.50
21033;DHT22;10675;47.976;7.824;2023-05-31T04:45:51;14.40;82.40
21033;DHT22;10675;47.976;7.824;2023-05-31T04:48:17;14.60;82.90
21033;DHT22;10675;47.976;7.824;2023-05-31T04:50:43;14.60;84.10
21033;DHT22;10675;47.976;7.824;2023-05-31T04:53:10;14.70;84.80
21033;DHT22;10675;47.976;7.824;2023-05-31T04:55:36;14.70;83.10
21033;DHT22;10675;47.976;7.824;2023-05-31T04:58:01;14.80;81.90
21033;DHT22;10675;47.976;7.824;2023-05-31T05:00:27;14.90;80.80
21033;DHT22;10675;47.976;7.824;2023-05-31T05:02:52;15.00;82.70
21033;DHT22;10675;47.976;7.824;2023-05-31T05:05:18;15.00;81.60
21033;DHT22;10675;47.976;7.824;2023-05-31T05:07:44;15.20;82.00
21033;DHT22;10675;47.976;7.824;2023-05-31T05:10:09;15.20;81.70
21033;DHT22;10675;47.976;7.824;2023-05-31T05:12:35;15.30;78.70
21033;DHT22;10675;47.976;7.824;2023-05-31T05:15:01;15.70;78.20
21033;DHT22;10675;47.976;7.824;2023-05-31T05:17:27;15.90;76.10
21033;DHT22;10675;47.976;7.824;2023-05-31T05:19:53;16.10;75.90
21033;DHT22;10675;47.976;7.824;2023-05-31T05:22:18;16.40;73.60
21033;DHT22;10675;47.976;7.824;2023-05-31T05:24:44;16.10;75.00
21033;DHT22;10675;47.976;7.824;2023-05-31T05:27:09;16.00;75.30
21033;DHT22;10675;47.976;7.824;2023-05-31T05:29:35;16.00;74.50
21033;DHT22;10675;47.976;7.824;2023-05-31T05:32:00;16.10;75.50
21033;DHT22;10675;47.976;7.824;2023-05-31T05:34:26;16.00;73.50
21033;DHT22;10675;47.976;7.824;2023-05-31T05:36:51;16.30;75.50
21033;DHT22;10675;47.976;7.824;2023-05-31T05:39:18;16.30;75.20
21033;DHT22;10675;47.976;7.824;2023-05-31T05:41:43;16.30;76.20
21033;DHT22;10675;47.976;7.824;2023-05-31T05:44:09;16.50;71.50
21033;DHT22;10675;47.976;7.824;2023-05-31T05:46:35;16.50;70.60
21033;DHT22;10675;47.976;7.824;2023-05-31T05:49:00;16.50;70.20
21033;DHT22;10675;47.976;7.824;2023-05-31T05:51:26;16.60;70.40
21033;DHT22;10675;47.976;7.824;2023-05-31T05:53:52;16.50;69.70
21033;DHT22;10675;47.976;7.824;2023-05-31T05:56:17;16.60;69.20
21033;DHT22;10675;47.976;7.824;2023-05-31T05:58:46;16.70;68.50
21033;DHT22;10675;47.976;7.824;2023-05-31T06:01:12;17.00;68.90
21033;DHT22;10675;47.976;7.824;2023-05-31T06:03:46;16.90;69.80
21033;DHT22;10675;47.976;7.824;2023-05-31T06:06:13;16.50;67.90
21033;DHT22;10675;47.976;7.824;2023-05-31T06:08:39;17.10;70.10
21033;DHT22;10675;47.976;7.824;2023-05-31T06:11:04;17.10;67.80
21033;DHT22;10675;47.976;7.824;2023-05-31T06:13:30;17.20;66.20
21033;DHT22;10675;47.976;7.824;2023-05-31T06:15:56;17.50;66.90
21033;DHT22;10675;47.976;7.824;2023-05-31T06:18:22;17.60;65.80
21033;DHT22;10675;47.976;7.824;2023-05-31T06:20:47;17.60;65.00
21033;DHT22;10675;47.976;7.824;2023-05-31T06:23:13;17.70;64.80
21033;DHT22;10675;47.976;7.824;2023-05-31T06:25:38;17.80;65.50
21033;DHT22;10675;47.976;7.824;2023-05-31T06:28:04;17.90;65.50
21033;DHT22;10675;47.976;7.824;2023-05-31T06:30:29;18.00;65.60
21033;DHT22;10675;47.976;7.824;2023-05-31T06:32:55;17.90;65.30
21033;DHT22;10675;47.976;7.824;2023-05-31T06:35:21;17.90;64.60
21033;DHT22;10675;47.976;7.824;2023-05-31T06:37:48;18.00;64.20
21033;DHT22;10675;47.976;7.824;2023-05-31T06:40:14;18.20;64.20
21033;DHT22;10675;47.976;7.824;2023-05-31T06:42:40;18.20;64.20
21033;DHT22;10675;47.976;7.824;2023-05-31T06:45:06;18.20;63.70
21033;DHT22;10675;47.976;7.824;2023-05-31T06:47:31;18.10;61.90
21033;DHT22;10675;47.976;7.824;2023-05-31T06:49:58;18.20;62.00
21033;DHT22;10675;47.976;7.824;2023-05-31T06:52:23;18.20;62.60
21033;DHT22;10675;47.976;7.824;2023-05-31T06:54:49;18.40;63.50
21033;DHT22;10675;47.976;7.824;2023-05-31T06:57:16;18.60;62.10
21033;DHT22;10675;47.976;7.824;2023-05-31T06:59:41;18.60;61.90
21033;DHT22;10675;47.976;7.824;2023-05-31T07:02:08;18.70;60.60
21033;DHT22;10675;47.976;7.824;2023-05-31T07:04:34;18.80;60.70
21033;DHT22;10675;47.976;7.824;2023-05-31T07:06:59;18.90;61.10
21033;DHT22;10675;47.976;7.824;2023-05-31T07:09:25;19.20;61.80
21033;DHT22;10675;47.976;7.824;2023-05-31T07:11:50;19.20;59.80
21033;DHT22;10675;47.976;7.824;2023-05-31T07:14:16;19.10;60.70
21033;DHT22;10675;47.976;7.824;2023-05-31T07:16:41;19.00;60.60
21033;DHT22;10675;47.976;7.824;2023-05-31T07:19:07;19.00;61.20
21033;DHT22;10675;47.976;7.824;2023-05-31T07:21:33;18.90;61.70
21033;DHT22;10675;47.976;7.824;2023-05-31T07:23:59;19.00;61.70
21033;DHT22;10675;47.976;7.824;2023-05-31T07:26:24;19.00;61.70
21033;DHT22;10675;47.976;7.824;2023-05-31T07:28:50;19.40;62.40
21033;DHT22;10675;47.976;7.824;2023-05-31T07:31:18;19.80;61.00
21033;DHT22;10675;47.976;7.824;2023-05-31T07:33:44;19.80;60.70
21033;DHT22;10675;47.976;7.824;2023-05-31T07:36:10;20.00;60.60
21033;DHT22;10675;47.976;7.824;2023-05-31T07:38:36;19.80;59.90
21033;DHT22;10675;47.976;7.824;2023-05-31T07:41:02;20.00;60.80
21033;DHT22;10675;47.976;7.824;2023-05-31T07:43:27;19.90;59.60
21033;DHT22;10675;47.976;7.824;2023-05-31T07:45:55;20.00;60.20
21033;DHT22;10675;47.976;7.824;2023-05-31T07:48:22;20.00;61.40
21033;DHT22;10675;47.976;7.824;2023-05-31T07:50:49;20.30;61.10
21033;DHT22;10675;47.976;7.824;2023-05-31T07:53:15;20.30;60.00
21033;DHT22;10675;47.976;7.824;2023-05-31T07:55:41;20.50;60.40
21033;DHT22;10675;47.976;7.824;2023-05-31T07:58:06;20.70;59.30
21033;DHT22;10675;47.976;7.824;2023-05-31T08:00:32;20.70;59.10
21033;DHT22;10675;47.976;7.824;2023-05-31T08:02:58;20.50;59.90
21033;DHT22;10675;47.976;7.824;2023-05-31T08:05:23;20.60;59.90
21033;DHT22;10675;47.976;7.824;2023-05-31T08:07:49;21.00;60.50
21033;DHT22;10675;47.976;7.824;2023-05-31T08:10:17;21.00;58.00
21033;DHT22;10675;47.976;7.824;2023-05-31T08:12:43;21.30;59.00
21033;DHT22;10675;47.976;7.824;2023-05-31T08:15:09;21.30;58.30
21033;DHT22;10675;47.976;7.824;2023-05-31T08:17:36;21.30;59.50
21033;DHT22;10675;47.976;7.824;2023-05-31T08:20:02;21.40;57.30
21033;DHT22;10675;47.976;7.824;2023-05-31T08:22:35;21.40;56.90
21033;DHT22;10675;47.976;7.824;2023-05-31T08:25:01;21.50;57.60
21033;DHT22;10675;47.976;7.824;2023-05-31T08:27:26;21.40;56.60
21033;DHT22;10675;47.976;7.824;2023-05-31T08:29:52;21.60;58.10
21033;DHT22;10675;47.976;7.824;2023-05-31T08:32:17;21.70;57.50
21033;DHT22;10675;47.976;7.824;2023-05-31T08:34:43;21.80;56.10
21033;DHT22;10675;47.976;7.824;2023-05-31T08:37:11;21.80;56.90
21033;DHT22;10675;47.976;7.824;2023-05-31T08:39:37;21.90;57.50
21033;DHT22;10675;47.976;7.824;2023-05-31T08:42:04;22.10;56.20
21033;DHT22;10675;47.976;7.824;2023-05-31T08:44:31;22.10;56.50
21033;DHT22;10675;47.976;7.824;2023-05-31T08:47:01;22.20;55.10
21033;DHT22;10675;47.976;7.824;2023-05-31T08:49:30;22.40;55.50
21033;DHT22;10675;47.976;7.824;2023-05-31T08:51:56;22.80;55.30
21033;DHT22;10675;47.976;7.824;2023-05-31T08:54:24;22.50;54.40
21033;DHT22;10675;47.976;7.824;2023-05-31T08:56:50;22.80;56.10
21033;DHT22;10675;47.976;7.824;2023-05-31T08:59:17;22.90;53.80
21033;DHT22;10675;47.976;7.824;2023-05-31T09:01:43;22.80;53.70
21033;DHT22;10675;47.976;7.824;2023-05-31T09:04:10;22.80;54.30
21033;DHT22;10675;47.976;7.824;2023-05-31T09:06:35;23.00;54.00
21033;DHT22;10675;47.976;7.824;2023-05-31T09:09:02;23.00;54.70
21033;DHT22;10675;47.976;7.824;2023-05-31T09:11:27;23.30;53.70
21033;DHT22;10675;47.976;7.824;2023-05-31T09:13:53;23.10;53.80
21033;DHT22;10675;47.976;7.824;2023-05-31T09:16:20;23.30;54.10
21033;DHT22;10675;47.976;7.824;2023-05-31T09:18:47;23.20;54.30
21033;DHT22;10675;47.976;7.824;2023-05-31T09:21:14;23.20;53.90
21033;DHT22;10675;47.976;7.824;2023-05-31T09:23:54;22.90;54.30
21033;DHT22;10675;47.976;7.824;2023-05-31T09:26:20;22.80;55.00
21033;DHT22;10675;47.976;7.824;2023-05-31T09:28:53;22.90;55.70
21033;DHT22;10675;47.976;7.824;2023-05-31T09:31:20;23.00;55.80
21033;DHT22;10675;47.976;7.824;2023-05-31T09:33:48;23.00;54.90
21033;DHT22;10675;47.976;7.824;2023-05-31T09:36:14;22.80;56.60
21033;DHT22;10675;47.976;7.824;2023-05-31T09:38:47;23.10;57.00
21033;DHT22;10675;47.976;7.824;2023-05-31T09:41:19;23.20;55.10
21033;DHT22;10675;47.976;7.824;2023-05-31T09:43:47;23.50;55.20
21033;DHT22;10675;47.976;7.824;2023-05-31T09:46:14;23.90;52.80
21033;DHT22;10675;47.976;7.824;2023-05-31T09:48:40;24.10;52.30
21033;DHT22;10675;47.976;7.824;2023-05-31T09:51:07;24.50;52.10
21033;DHT22;10675;47.976;7.824;2023-05-31T09:53:42;24.60;48.80
21033;DHT22;10675;47.976;7.824;2023-05-31T09:56:17;24.80;47.90
21033;DHT22;10675;47.976;7.824;2023-05-31T09:58:43;25.00;46.80
21033;DHT22;10675;47.976;7.824;2023-05-31T10:01:09;25.20;46.30
21033;DHT22;10675;47.976;7.824;2023-05-31T10:03:35;25.30;47.10
21033;DHT22;10675;47.976;7.824;2023-05-31T10:06:02;25.40;46.60
21033;DHT22;10675;47.976;7.824;2023-05-31T10:08:28;25.40;44.70
21033;DHT22;10675;47.976;7.824;2023-05-31T10:10:58;25.40;44.70
21033;DHT22;10675;47.976;7.824;2023-05-31T10:13:27;25.70;47.10
21033;DHT22;10675;47.976;7.824;2023-05-31T10:15:55;26.10;44.70
21033;DHT22;10675;47.976;7.824;2023-05-31T10:18:22;26.10;45.20
21033;DHT22;10675;47.976;7.824;2023-05-31T10:20:58;26.20;44.10
21033;DHT22;10675;47.976;7.824;2023-05-31T10:23:24;26.10;42.50
21033;DHT22;10675;47.976;7.824;2023-05-31T10:28:54;26.20;43.90
21033;DHT22;10675;47.976;7.824;2023-05-31T10:31:23;26.30;41.50
21033;DHT22;10675;47.976;7.824;2023-05-31T10:33:54;26.30;42.50
21033;DHT22;10675;47.976;7.824;2023-05-31T10:36:20;26.30;43.10
21033;DHT22;10675;47.976;7.824;2023-05-31T10:38:52;26.30;42.00
21033;DHT22;10675;47.976;7.824;2023-05-31T10:41:22;26.50;40.00
21033;DHT22;10675;47.976;7.824;2023-05-31T10:43:55;26.50;42.90
21033;DHT22;10675;47.976;7.824;2023-05-31T10:46:26;26.40;43.80
21033;DHT22;10675;47.976;7.824;2023-05-31T10:48:56;26.50;43.20
21033;DHT22;10675;47.976;7.824;2023-05-31T10:51:39;26.50;43.10
21033;DHT22;10675;47.976;7.824;2023-05-31T10:54:05;26.60;43.70
21033;DHT22;10675;47.976;7.824;2023-05-31T10:56:31;26.90;40.50
21033;DHT22;10675;47.976;7.824;2023-05-31T10:58:56;27.10;41.00
21033;DHT22;10675;47.976;7.824;2023-05-31T11:01:22;27.20;40.60
21033;DHT22;10675;47.976;7.824;2023-05-31T11:03:53;27.40;43.00
21033;DHT22;10675;47.976;7.824;2023-05-31T11:06:27;27.40;40.00
21033;DHT22;10675;47.976;7.824;2023-05-31T11:09:09;27.50;40.00
21033;DHT22;10675;47.976;7.824;2023-05-31T11:14:09;27.50;42.50
21033;DHT22;10675;47.976;7.824;2023-05-31T11:19:32;27.50;43.40
21033;DHT22;10675;47.976;7.824;2023-05-31T11:22:08;27.50;41.00
21033;DHT22;10675;47.976;7.824;2023-05-31T11:27:20;27.50;41.40
21033;DHT22;10675;47.976;7.824;2023-05-31T11:32:22;27.80;45.10
21033;DHT22;10675;47.976;7.824;2023-05-31T11:35:13;27.70;39.90
21033;DHT22;10675;47.976;7.824;2023-05-31T11:37:40;27.70;39.70
21033;DHT22;10675;47.976;7.824;2023-05-31T11:40:07;27.70;39.70
21033;DHT22;10675;47.976;7.824;2023-05-31T11:42:36;27.70;40.70
21033;DHT22;10675;47.976;7.824;2023-05-31T11:45:13;27.80;40.70
21033;DHT22;10675;47.976;7.824;2023-05-31T11:50:14;27.90;40.50
21033;DHT22;10675;47.976;7.824;2023-05-31T11:52:43;27.90;37.00
21033;DHT22;10675;47.976;7.824;2023-05-31T11:55:09;28.00;39.40
21033;DHT22;10675;47.976;7.824;2023-05-31T11:57:42;28.10;37.60
21033;DHT22;10675;47.976;7.824;2023-05-31T12:00:10;28.10;38.50
21033;DHT22;10675;47.976;7.824;2023-05-31T12:02:44;28.00;36.50
21033;DHT22;10675;47.976;7.824;2023-05-31T12:05:14;28.20;37.30
21033;DHT22;10675;47.976;7.824;2023-05-31T12:07:41;28.20;36.80
21033;DHT22;10675;47.976;7.824;2023-05-31T12:10:07;28.20;37.60
21033;DHT22;10675;47.976;7.824;2023-05-31T12:12:33;28.10;37.80
21033;DHT22;10675;47.976;7.824;2023-05-31T12:14:59;28.00;36.00
21033;DHT22;10675;47.976;7.824;2023-05-31T12:17:30;28.00;37.30
21033;DHT22;10675;47.976;7.824;2023-05-31T12:19:55;28.30;37.80
21033;DHT22;10675;47.976;7.824;2023-05-31T12:22:22;28.40;38.50
21033;DHT22;10675;47.976;7.824;2023-05-31T12:24:52;28.50;38.60
21033;DHT22;10675;47.976;7.824;2023-05-31T12:27:24;28.40;38.20
21033;DHT22;10675;47.976;7.824;2023-05-31T12:29:54;28.50;36.30
21033;DHT22;10675;47.976;7.824;2023-05-31T12:32:21;28.70;34.30
21033;DHT22;10675;47.976;7.824;2023-05-31T12:34:47;28.80;35.00
21033;DHT22;10675;47.976;7.824;2023-05-31T12:37:12;29.00;36.60
21033;DHT22;10675;47.976;7.824;2023-05-31T12:39:38;29.30;37.30
21033;DHT22;10675;47.976;7.824;2023-05-31T12:42:07;29.30;35.10
21033;DHT22;10675;47.976;7.824;2023-05-31T12:44:34;29.40;36.20
21033;DHT22;10675;47.976;7.824;2023-05-31T12:47:07;29.60;35.40
21033;DHT22;10675;47.976;7.824;2023-05-31T12:49:34;29.40;32.70
21033;DHT22;10675;47.976;7.824;2023-05-31T12:54:29;29.70;35.00
21033;DHT22;10675;47.976;7.824;2023-05-31T12:56:56;29.90;35.50
21033;DHT22;10675;47.976;7.824;2023-05-31T12:59:22;29.70;33.20
21033;DHT22;10675;47.976;7.824;2023-05-31T13:01:48;30.10;34.00
21033;DHT22;10675;47.976;7.824;2023-05-31T13:04:13;30.20;33.50
21033;DHT22;10675;47.976;7.824;2023-05-31T13:06:40;30.30;34.10
21033;DHT22;10675;47.976;7.824;2023-05-31T13:09:06;30.40;33.00
21033;DHT22;10675;47.976;7.824;2023-05-31T13:11:39;30.70;33.40
21033;DHT22;10675;47.976;7.824;2023-05-31T13:14:06;30.80;33.50
21033;DHT22;10675;47.976;7.824;2023-05-31T13:16:34;30.90;33.50
21033;DHT22;10675;47.976;7.824;2023-05-31T13:19:00;31.20;31.30
21033;DHT22;10675;47.976;7.824;2023-05-31T13:21:27;31.30;32.20
21033;DHT22;10675;47.976;7.824;2023-05-31T13:23:53;31.50;34.50
21033;DHT22;10675;47.976;7.824;2023-05-31T13:26:19;31.60;31.90
21033;DHT22;10675;47.976;7.824;2023-05-31T13:28:45;31.70;31.20
21033;DHT22;10675;47.976;7.824;2023-05-31T13:31:12;31.50;31.20
21033;DHT22;10675;47.976;7.824;2023-05-31T13:33:38;31.90;29.60
21033;DHT22;10675;47.976;7.824;2023-05-31T13:36:03;32.00;29.20
21033;DHT22;10675;47.976;7.824;2023-05-31T13:38:29;32.50;32.90
21033;DHT22;10675;47.976;7.824;2023-05-31T13:40:55;32.50;32.30
21033;DHT22;10675;47.976;7.824;2023-05-31T13:43:22;32.60;30.00
21033;DHT22;10675;47.976;7.824;2023-05-31T13:45:49;32.10;29.50
21033;DHT22;10675;47.976;7.824;2023-05-31T13:48:15;32.50;30.00
21033;DHT22;10675;47.976;7.824;2023-05-31T13:50:40;32.20;29.30
21033;DHT22;10675;47.976;7.824;2023-05-31T13:53:06;32.40;29.10
21033;DHT22;10675;47.976;7.824;2023-05-31T13:55:32;32.90;28.60
21033;DHT22;10675;47.976;7.824;2023-05-31T13:57:58;32.60;28.00
21033;DHT22;10675;47.976;7.824;2023-05-31T14:00:24;32.50;29.70
21033;DHT22;10675;47.976;7.824;2023-05-31T14:02:51;32.40;28.70
21033;DHT22;10675;47.976;7.824;2023-05-31T14:05:17;32.80;29.70
21033;DHT22;10675;47.976;7.824;2023-05-31T14:07:43;32.90;30.00
21033;DHT22;10675;47.976;7.824;2023-05-31T14:10:09;32.50;28.20
21033;DHT22;10675;47.976;7.824;2023-05-31T14:12:35;32.00;29.10
21033;DHT22;10675;47.976;7.824;2023-05-31T14:15:00;31.90;28.30
21033;DHT22;10675;47.976;7.824;2023-05-31T14:17:26;32.00;31.00
21033;DHT22;10675;47.976;7.824;2023-05-31T14:19:51;31.80;29.20
21033;DHT22;10675;47.976;7.824;2023-05-31T14:22:17;31.60;30.20
21033;DHT22;10675;47.976;7.824;2023-05-31T14:24:42;31.80;29.00
21033;DHT22;10675;47.976;7.824;2023-05-31T14:27:08;31.70;29.50
21033;DHT22;10675;47.976;7.824;2023-05-31T14:29:34;31.70;29.20
21033;DHT22;10675;47.976;7.824;2023-05-31T14:31:59;31.50;29.50
21033;DHT22;10675;47.976;7.824;2023-05-31T14:34:25;31.30;29.70
21033;DHT22;10675;47.976;7.824;2023-05-31T14:36:52;31.10;30.10
21033;DHT22;10675;47.976;7.824;2023-05-31T14:39:17;30.90;29.00
21033;DHT22;10675;47.976;7.824;2023-05-31T14:41:43;30.50;30.40
21033;DHT22;10675;47.976;7.824;2023-05-31T14:44:08;30.20;29.80
21033;DHT22;10675;47.976;7.824;2023-05-31T14:46:34;30.30;30.20
21033;DHT22;10675;47.976;7.824;2023-05-31T14:48:59;30.30;31.00
21033;DHT22;10675;47.976;7.824;2023-05-31T14:51:25;30.40;30.00
21033;DHT22;10675;47.976;7.824;2023-05-31T14:53:53;30.40;31.60
21033;DHT22;10675;47.976;7.824;2023-05-31T14:56:19;30.20;31.80
21033;DHT22;10675;47.976;7.824;2023-05-31T14:58:45;30.20;31.90
21033;DHT22;10675;47.976;7.824;2023-05-31T15:01:11;30.20;30.30
21033;DHT22;10675;47.976;7.824;2023-05-31T15:03:37;30.00;32.30
21033;DHT22;10675;47.976;7.824;2023-05-31T15:06:03;30.00;31.00
21033;DHT22;10675;47.976;7.824;2023-05-31T15:08:29;29.90;30.90
21033;DHT22;10675;47.976;7.824;2023-05-31T15:10:55;29.90;33.10
21033;DHT22;10675;47.976;7.824;2023-05-31T15:13:21;29.50;32.70
21033;DHT22;10675;47.976;7.824;2023-05-31T15:15:46;29.80;33.60
21033;DHT22;10675;47.976;7.824;2023-05-31T15:18:12;29.50;33.40
21033;DHT22;10675;47.976;7.824;2023-05-31T15:20:38;29.30;32.20
21033;DHT22;10675;47.976;7.824;2023-05-31T15:23:04;29.40;32.80
21033;DHT22;10675;47.976;7.824;2023-05-31T15:25:30;29.00;32.40
21033;DHT22;10675;47.976;7.824;2023-05-31T15:27:55;28.80;34.50
21033;DHT22;10675;47.976;7.824;2023-05-31T15:30:21;28.90;33.80
21033;DHT22;10675;47.976;7.824;2023-05-31T15:32:46;29.00;33.50
21033;DHT22;10675;47.976;7.824;2023-05-31T15:35:12;28.90;33.90
21033;DHT22;10675;47.976;7.824;2023-05-31T15:37:38;29.00;32.20
21033;DHT22;10675;47.976;7.824;2023-05-31T15:40:03;29.20;33.90
21033;DHT22;10675;47.976;7.824;2023-05-31T15:42:29;28.90;33.90
21033;DHT22;10675;47.976;7.824;2023-05-31T15:44:55;28.50;32.00
21033;DHT22;10675;47.976;7.824;2023-05-31T15:47:20;28.50;32.20
21033;DHT22;10675;47.976;7.824;2023-05-31T15:49:47;28.60;33.20
21033;DHT22;10675;47.976;7.824;2023-05-31T15:52:13;28.60;34.30